KMTH/MTH METAR and TAF weather

Enter ICAO airport designator
Station Type Date Time Source
KMTH METAR 2019/06/27 07:53 UTC NOAA

KMTH 270753Z AUTO 09007KT 10SM CLR 29/23 A3002 RMK AO2 SLP166 T02890233


Station Type Date Time Source
KMTH Decoded METAR 2019/06/27 07:53 UTC NOAA

MARATHON AIRPORT, FL, United States (KMTH) 24-44N 81-03W 2M
Jun 27, 2019 - 03:53 AM EDT / 2019.06.27 0753 UTC
Wind: from the E (090 degrees) at 8 MPH (7 KT):0
Visibility: 10 mile(s):0
Sky conditions: clear
Temperature: 84.0 F (28.9 C)
Dew Point: 73.9 F (23.3 C)
Relative Humidity: 71%
Pressure (altimeter): 30.02 in. Hg (1016 hPa)
ob: KMTH 270753Z AUTO 09007KT 10SM CLR 29/23 A3002 RMK AO2 SLP166 T02890233
cycle: 8

Station Type Date Time Source
KMTH TAF 2019/06/27 07:59 UTC NOAA

TAF
AMD KMTH 270659Z 2707/2806 06005KT P6SM FEW015 SCT150
FM271700 10008KT P6SM VCTS SCT025CB BKN250

Example: see airport list